sensor_id;sensor_type;location;lat;lon;timestamp;P1;durP1;ratioP1;P2;durP2;ratioP2
75814;SDS011;64451;45.574;14.224;2023-02-28T00:01:21;3.50;;;1.55;;
75814;SDS011;64451;45.574;14.224;2023-02-28T00:03:22;1.52;;;1.10;;
75814;SDS011;64451;45.574;14.224;2023-02-28T00:05:23;2.05;;;1.27;;
75814;SDS011;64451;45.574;14.224;2023-02-28T00:07:34;5.18;;;2.30;;
75814;SDS011;64451;45.574;14.224;2023-02-28T00:09:44;5.00;;;1.80;;
75814;SDS011;64451;45.574;14.224;2023-02-28T00:11:50;4.55;;;2.03;;
75814;SDS011;64451;45.574;14.224;2023-02-28T00:13:50;2.20;;;1.33;;
75814;SDS011;64451;45.574;14.224;2023-02-28T00:18:28;6.07;;;2.13;;
75814;SDS011;64451;45.574;14.224;2023-02-28T00:24:43;6.73;;;2.57;;
75814;SDS011;64451;45.574;14.224;2023-02-28T00:26:44;4.30;;;1.70;;
75814;SDS011;64451;45.574;14.224;2023-02-28T00:28:53;4.00;;;1.77;;
75814;SDS011;64451;45.574;14.224;2023-02-28T00:31:00;5.95;;;1.75;;
75814;SDS011;64451;45.574;14.224;2023-02-28T00:33:00;2.70;;;1.45;;
75814;SDS011;64451;45.574;14.224;2023-02-28T00:35:08;5.68;;;1.90;;
75814;SDS011;64451;45.574;14.224;2023-02-28T00:37:10;2.22;;;1.40;;
75814;SDS011;64451;45.574;14.224;2023-02-28T00:39:23;6.43;;;1.73;;
75814;SDS011;64451;45.574;14.224;2023-02-28T00:41:26;4.32;;;2.33;;
75814;SDS011;64451;45.574;14.224;2023-02-28T00:43:26;3.03;;;1.13;;
75814;SDS011;64451;45.574;14.224;2023-02-28T00:45:35;4.70;;;1.27;;
75814;SDS011;64451;45.574;14.224;2023-02-28T00:47:36;3.30;;;1.45;;
75814;SDS011;64451;45.574;14.224;2023-02-28T00:49:42;3.80;;;2.08;;
75814;SDS011;64451;45.574;14.224;2023-02-28T00:53:55;5.50;;;1.85;;
75814;SDS011;64451;45.574;14.224;2023-02-28T00:55:55;5.32;;;1.88;;
75814;SDS011;64451;45.574;14.224;2023-02-28T00:58:02;1.30;;;1.00;;
75814;SDS011;64451;45.574;14.224;2023-02-28T01:00:11;3.50;;;1.77;;
75814;SDS011;64451;45.574;14.224;2023-02-28T01:02:24;3.03;;;1.92;;
75814;SDS011;64451;45.574;14.224;2023-02-28T01:04:27;3.28;;;1.13;;
75814;SDS011;64451;45.574;14.224;2023-02-28T01:08:51;3.13;;;1.50;;
75814;SDS011;64451;45.574;14.224;2023-02-28T01:10:52;1.88;;;1.00;;
75814;SDS011;64451;45.574;14.224;2023-02-28T01:12:52;2.92;;;1.70;;
75814;SDS011;64451;45.574;14.224;2023-02-28T01:14:56;3.80;;;1.23;;
75814;SDS011;64451;45.574;14.224;2023-02-28T01:16:59;9.02;;;1.00;;
75814;SDS011;64451;45.574;14.224;2023-02-28T01:18:59;1.73;;;1.10;;
75814;SDS011;64451;45.574;14.224;2023-02-28T01:21:10;2.67;;;1.23;;
75814;SDS011;64451;45.574;14.224;2023-02-28T01:23:13;3.05;;;1.67;;
75814;SDS011;64451;45.574;14.224;2023-02-28T01:25:22;7.28;;;2.33;;
75814;SDS011;64451;45.574;14.224;2023-02-28T01:27:23;2.83;;;1.20;;
75814;SDS011;64451;45.574;14.224;2023-02-28T01:29:29;6.22;;;1.60;;
75814;SDS011;64451;45.574;14.224;2023-02-28T01:31:41;5.93;;;2.95;;
75814;SDS011;64451;45.574;14.224;2023-02-28T01:33:42;3.80;;;2.08;;
75814;SDS011;64451;45.574;14.224;2023-02-28T01:35:42;6.07;;;2.85;;
75814;SDS011;64451;45.574;14.224;2023-02-28T01:37:42;4.93;;;2.28;;
75814;SDS011;64451;45.574;14.224;2023-02-28T01:39:42;5.50;;;2.58;;
75814;SDS011;64451;45.574;14.224;2023-02-28T01:41:44;4.88;;;2.28;;
75814;SDS011;64451;45.574;14.224;2023-02-28T01:46:06;6.20;;;3.25;;
75814;SDS011;64451;45.574;14.224;2023-02-28T01:48:07;7.78;;;2.78;;
75814;SDS011;64451;45.574;14.224;2023-02-28T01:50:22;5.72;;;2.80;;
75814;SDS011;64451;45.574;14.224;2023-02-28T01:52:40;4.40;;;2.08;;
75814;SDS011;64451;45.574;14.224;2023-02-28T01:54:55;7.15;;;3.17;;
75814;SDS011;64451;45.574;14.224;2023-02-28T01:56:59;5.00;;;2.58;;
75814;SDS011;64451;45.574;14.224;2023-02-28T01:59:23;7.60;;;3.08;;
75814;SDS011;64451;45.574;14.224;2023-02-28T02:01:35;6.63;;;3.08;;
75814;SDS011;64451;45.574;14.224;2023-02-28T02:03:41;4.47;;;2.67;;
75814;SDS011;64451;45.574;14.224;2023-02-28T02:05:42;5.45;;;2.53;;
75814;SDS011;64451;45.574;14.224;2023-02-28T02:07:48;4.43;;;1.60;;
75814;SDS011;64451;45.574;14.224;2023-02-28T02:10:22;7.60;;;2.38;;
75814;SDS011;64451;45.574;14.224;2023-02-28T02:15:12;4.85;;;1.65;;
75814;SDS011;64451;45.574;14.224;2023-02-28T02:37:09;5.45;;;2.42;;
75814;SDS011;64451;45.574;14.224;2023-02-28T02:42:28;5.90;;;2.97;;
75814;SDS011;64451;45.574;14.224;2023-02-28T02:44:50;4.60;;;2.38;;
75814;SDS011;64451;45.574;14.224;2023-02-28T02:47:31;7.45;;;1.77;;
75814;SDS011;64451;45.574;14.224;2023-02-28T02:49:32;10.20;;;2.83;;
75814;SDS011;64451;45.574;14.224;2023-02-28T02:51:53;5.35;;;2.35;;
75814;SDS011;64451;45.574;14.224;2023-02-28T02:54:13;6.55;;;2.42;;
75814;SDS011;64451;45.574;14.224;2023-02-28T02:56:36;4.28;;;2.00;;
75814;SDS011;64451;45.574;14.224;2023-02-28T02:58:41;4.35;;;1.92;;
75814;SDS011;64451;45.574;14.224;2023-02-28T03:04:51;3.45;;;1.33;;
75814;SDS011;64451;45.574;14.224;2023-02-28T03:06:54;2.78;;;1.08;;
75814;SDS011;64451;45.574;14.224;2023-02-28T03:08:55;3.00;;;1.40;;
75814;SDS011;64451;45.574;14.224;2023-02-28T03:10:56;4.65;;;1.95;;
75814;SDS011;64451;45.574;14.224;2023-02-28T03:15:14;4.38;;;1.33;;
75814;SDS011;64451;45.574;14.224;2023-02-28T03:20:07;4.43;;;0.98;;
75814;SDS011;64451;45.574;14.224;2023-02-28T03:22:23;4.13;;;1.20;;
75814;SDS011;64451;45.574;14.224;2023-02-28T03:26:58;3.42;;;1.13;;
75814;SDS011;64451;45.574;14.224;2023-02-28T03:29:35;2.15;;;1.13;;
75814;SDS011;64451;45.574;14.224;2023-02-28T03:31:45;5.00;;;1.92;;
75814;SDS011;64451;45.574;14.224;2023-02-28T03:33:51;5.75;;;1.55;;
75814;SDS011;64451;45.574;14.224;2023-02-28T03:36:12;6.40;;;2.58;;
75814;SDS011;64451;45.574;14.224;2023-02-28T03:38:25;4.78;;;1.63;;
75814;SDS011;64451;45.574;14.224;2023-02-28T03:40:30;3.63;;;1.60;;
75814;SDS011;64451;45.574;14.224;2023-02-28T03:42:34;8.07;;;3.20;;
75814;SDS011;64451;45.574;14.224;2023-02-28T03:49:12;4.78;;;1.98;;
75814;SDS011;64451;45.574;14.224;2023-02-28T03:51:27;5.25;;;2.25;;
75814;SDS011;64451;45.574;14.224;2023-02-28T03:53:31;5.72;;;1.63;;
75814;SDS011;64451;45.574;14.224;2023-02-28T03:55:37;5.25;;;1.90;;
75814;SDS011;64451;45.574;14.224;2023-02-28T04:02:34;3.55;;;1.30;;
75814;SDS011;64451;45.574;14.224;2023-02-28T04:04:34;4.53;;;1.83;;
75814;SDS011;64451;45.574;14.224;2023-02-28T04:06:34;2.92;;;1.48;;
75814;SDS011;64451;45.574;14.224;2023-02-28T04:08:35;2.40;;;1.58;;
75814;SDS011;64451;45.574;14.224;2023-02-28T04:10:36;4.25;;;1.40;;
75814;SDS011;64451;45.574;14.224;2023-02-28T04:12:36;5.85;;;1.58;;
75814;SDS011;64451;45.574;14.224;2023-02-28T04:14:36;4.90;;;1.77;;
75814;SDS011;64451;45.574;14.224;2023-02-28T04:16:38;3.47;;;1.70;;
75814;SDS011;64451;45.574;14.224;2023-02-28T04:18:41;5.00;;;1.92;;
75814;SDS011;64451;45.574;14.224;2023-02-28T04:20:45;3.13;;;1.60;;
75814;SDS011;64451;45.574;14.224;2023-02-28T04:22:45;3.47;;;1.83;;
75814;SDS011;64451;45.574;14.224;2023-02-28T04:24:45;6.20;;;2.00;;
75814;SDS011;64451;45.574;14.224;2023-02-28T04:26:46;7.13;;;1.90;;
75814;SDS011;64451;45.574;14.224;2023-02-28T04:31:02;3.35;;;1.63;;
75814;SDS011;64451;45.574;14.224;2023-02-28T04:33:03;5.13;;;2.00;;
75814;SDS011;64451;45.574;14.224;2023-02-28T04:35:04;4.45;;;1.80;;
75814;SDS011;64451;45.574;14.224;2023-02-28T04:37:05;3.83;;;1.65;;
75814;SDS011;64451;45.574;14.224;2023-02-28T04:39:05;5.57;;;1.80;;
75814;SDS011;64451;45.574;14.224;2023-02-28T04:41:06;3.22;;;1.45;;
75814;SDS011;64451;45.574;14.224;2023-02-28T04:43:06;5.88;;;2.05;;
75814;SDS011;64451;45.574;14.224;2023-02-28T04:45:06;4.03;;;2.03;;
75814;SDS011;64451;45.574;14.224;2023-02-28T04:47:10;5.90;;;2.17;;
75814;SDS011;64451;45.574;14.224;2023-02-28T04:49:13;3.17;;;1.80;;
75814;SDS011;64451;45.574;14.224;2023-02-28T04:51:15;3.60;;;1.48;;
75814;SDS011;64451;45.574;14.224;2023-02-28T04:53:16;4.97;;;1.95;;
75814;SDS011;64451;45.574;14.224;2023-02-28T04:55:17;4.25;;;1.38;;
75814;SDS011;64451;45.574;14.224;2023-02-28T04:57:17;3.33;;;1.73;;
75814;SDS011;64451;45.574;14.224;2023-02-28T04:59:18;11.30;;;4.30;;
75814;SDS011;64451;45.574;14.224;2023-02-28T05:01:19;15.77;;;6.50;;
75814;SDS011;64451;45.574;14.224;2023-02-28T05:03:22;8.75;;;3.88;;
75814;SDS011;64451;45.574;14.224;2023-02-28T05:05:22;2.85;;;1.52;;
75814;SDS011;64451;45.574;14.224;2023-02-28T05:07:23;6.10;;;2.15;;
75814;SDS011;64451;45.574;14.224;2023-02-28T05:09:23;3.13;;;1.30;;
75814;SDS011;64451;45.574;14.224;2023-02-28T05:11:28;4.78;;;2.05;;
75814;SDS011;64451;45.574;14.224;2023-02-28T05:13:34;5.25;;;1.48;;
75814;SDS011;64451;45.574;14.224;2023-02-28T05:15:35;3.17;;;1.77;;
75814;SDS011;64451;45.574;14.224;2023-02-28T05:17:35;4.13;;;1.88;;
75814;SDS011;64451;45.574;14.224;2023-02-28T05:19:36;3.80;;;1.70;;
75814;SDS011;64451;45.574;14.224;2023-02-28T05:21:37;5.13;;;2.10;;
75814;SDS011;64451;45.574;14.224;2023-02-28T05:23:40;3.25;;;1.25;;
75814;SDS011;64451;45.574;14.224;2023-02-28T05:25:40;6.63;;;2.17;;
75814;SDS011;64451;45.574;14.224;2023-02-28T05:27:44;3.60;;;1.92;;
75814;SDS011;64451;45.574;14.224;2023-02-28T05:29:45;3.58;;;1.75;;
75814;SDS011;64451;45.574;14.224;2023-02-28T05:31:45;2.92;;;1.40;;
75814;SDS011;64451;45.574;14.224;2023-02-28T05:33:46;4.25;;;1.98;;
75814;SDS011;64451;45.574;14.224;2023-02-28T05:35:46;3.55;;;1.90;;
75814;SDS011;64451;45.574;14.224;2023-02-28T05:37:47;3.88;;;1.80;;
75814;SDS011;64451;45.574;14.224;2023-02-28T05:39:56;2.85;;;1.75;;
75814;SDS011;64451;45.574;14.224;2023-02-28T05:42:02;8.90;;;2.33;;
75814;SDS011;64451;45.574;14.224;2023-02-28T05:44:02;5.45;;;2.45;;
75814;SDS011;64451;45.574;14.224;2023-02-28T05:46:04;4.57;;;2.00;;
75814;SDS011;64451;45.574;14.224;2023-02-28T05:48:05;3.35;;;1.90;;
75814;SDS011;64451;45.574;14.224;2023-02-28T05:50:06;4.07;;;2.03;;
75814;SDS011;64451;45.574;14.224;2023-02-28T05:52:07;3.63;;;1.77;;
75814;SDS011;64451;45.574;14.224;2023-02-28T05:54:07;2.28;;;1.30;;
75814;SDS011;64451;45.574;14.224;2023-02-28T05:56:07;3.67;;;1.77;;
75814;SDS011;64451;45.574;14.224;2023-02-28T05:58:08;3.65;;;1.45;;
75814;SDS011;64451;45.574;14.224;2023-02-28T06:00:08;9.20;;;2.30;;
75814;SDS011;64451;45.574;14.224;2023-02-28T06:02:10;5.95;;;2.20;;
75814;SDS011;64451;45.574;14.224;2023-02-28T06:04:13;18.80;;;8.95;;
75814;SDS011;64451;45.574;14.224;2023-02-28T06:06:17;7.88;;;3.22;;
75814;SDS011;64451;45.574;14.224;2023-02-28T06:08:18;14.85;;;2.22;;
75814;SDS011;64451;45.574;14.224;2023-02-28T06:10:18;6.28;;;2.15;;
75814;SDS011;64451;45.574;14.224;2023-02-28T06:12:22;3.80;;;1.92;;
75814;SDS011;64451;45.574;14.224;2023-02-28T06:14:22;4.63;;;2.17;;
75814;SDS011;64451;45.574;14.224;2023-02-28T06:16:23;1.60;;;1.27;;
75814;SDS011;64451;45.574;14.224;2023-02-28T06:21:28;3.65;;;2.05;;
75814;SDS011;64451;45.574;14.224;2023-02-28T06:23:28;4.10;;;1.63;;
75814;SDS011;64451;45.574;14.224;2023-02-28T06:28:17;3.13;;;1.60;;
75814;SDS011;64451;45.574;14.224;2023-02-28T06:33:49;3.13;;;1.50;;
75814;SDS011;64451;45.574;14.224;2023-02-28T06:35:53;5.72;;;1.85;;
75814;SDS011;64451;45.574;14.224;2023-02-28T06:38:31;4.82;;;2.03;;
75814;SDS011;64451;45.574;14.224;2023-02-28T06:40:32;3.50;;;1.60;;
75814;SDS011;64451;45.574;14.224;2023-02-28T06:43:01;3.97;;;1.73;;
75814;SDS011;64451;45.574;14.224;2023-02-28T06:45:05;3.40;;;1.65;;
75814;SDS011;64451;45.574;14.224;2023-02-28T06:47:11;5.32;;;2.10;;
75814;SDS011;64451;45.574;14.224;2023-02-28T07:06:14;4.85;;;2.40;;
75814;SDS011;64451;45.574;14.224;2023-02-28T07:10:40;4.53;;;2.50;;
75814;SDS011;64451;45.574;14.224;2023-02-28T07:17:50;5.07;;;2.63;;
75814;SDS011;64451;45.574;14.224;2023-02-28T07:19:59;5.75;;;2.42;;
75814;SDS011;64451;45.574;14.224;2023-02-28T07:22:46;9.02;;;2.97;;
75814;SDS011;64451;45.574;14.224;2023-02-28T07:24:54;6.70;;;2.70;;
75814;SDS011;64451;45.574;14.224;2023-02-28T07:26:54;3.45;;;2.05;;
75814;SDS011;64451;45.574;14.224;2023-02-28T07:28:55;6.03;;;3.08;;
75814;SDS011;64451;45.574;14.224;2023-02-28T07:30:55;6.75;;;2.63;;
75814;SDS011;64451;45.574;14.224;2023-02-28T07:32:58;7.18;;;2.58;;
75814;SDS011;64451;45.574;14.224;2023-02-28T07:35:11;8.48;;;2.60;;
75814;SDS011;64451;45.574;14.224;2023-02-28T07:37:11;6.57;;;2.70;;
75814;SDS011;64451;45.574;14.224;2023-02-28T07:39:12;4.72;;;2.60;;
75814;SDS011;64451;45.574;14.224;2023-02-28T07:41:12;5.10;;;2.20;;
75814;SDS011;64451;45.574;14.224;2023-02-28T07:43:12;5.93;;;2.15;;
75814;SDS011;64451;45.574;14.224;2023-02-28T07:45:13;6.50;;;2.55;;
75814;SDS011;64451;45.574;14.224;2023-02-28T07:47:13;9.02;;;3.47;;
75814;SDS011;64451;45.574;14.224;2023-02-28T07:49:19;7.00;;;2.63;;
75814;SDS011;64451;45.574;14.224;2023-02-28T07:51:23;7.68;;;3.15;;
75814;SDS011;64451;45.574;14.224;2023-02-28T07:53:27;8.38;;;3.75;;
75814;SDS011;64451;45.574;14.224;2023-02-28T07:55:27;4.75;;;2.42;;
75814;SDS011;64451;45.574;14.224;2023-02-28T07:57:34;7.47;;;2.80;;
75814;SDS011;64451;45.574;14.224;2023-02-28T07:59:40;8.05;;;3.20;;
75814;SDS011;64451;45.574;14.224;2023-02-28T08:01:41;6.95;;;2.95;;
75814;SDS011;64451;45.574;14.224;2023-02-28T08:03:50;12.93;;;4.22;;
75814;SDS011;64451;45.574;14.224;2023-02-28T08:05:51;5.65;;;2.10;;
75814;SDS011;64451;45.574;14.224;2023-02-28T08:07:52;4.25;;;1.67;;
75814;SDS011;64451;45.574;14.224;2023-02-28T08:09:53;4.88;;;1.90;;
75814;SDS011;64451;45.574;14.224;2023-02-28T08:11:53;7.25;;;1.67;;
75814;SDS011;64451;45.574;14.224;2023-02-28T08:14:10;6.45;;;2.00;;
75814;SDS011;64451;45.574;14.224;2023-02-28T08:16:11;4.55;;;1.85;;
75814;SDS011;64451;45.574;14.224;2023-02-28T08:18:15;1.67;;;0.73;;
75814;SDS011;64451;45.574;14.224;2023-02-28T08:20:15;2.92;;;1.42;;
75814;SDS011;64451;45.574;14.224;2023-02-28T08:22:18;2.17;;;1.20;;
75814;SDS011;64451;45.574;14.224;2023-02-28T08:24:18;4.97;;;1.17;;
75814;SDS011;64451;45.574;14.224;2023-02-28T08:26:20;2.03;;;0.95;;
75814;SDS011;64451;45.574;14.224;2023-02-28T08:33:53;3.40;;;1.27;;
75814;SDS011;64451;45.574;14.224;2023-02-28T08:35:55;3.75;;;1.58;;
75814;SDS011;64451;45.574;14.224;2023-02-28T08:38:02;3.45;;;1.25;;
75814;SDS011;64451;45.574;14.224;2023-02-28T08:40:24;3.20;;;1.40;;
75814;SDS011;64451;45.574;14.224;2023-02-28T08:42:24;3.15;;;1.23;;
75814;SDS011;64451;45.574;14.224;2023-02-28T08:44:34;1.90;;;1.00;;
75814;SDS011;64451;45.574;14.224;2023-02-28T08:46:43;3.40;;;1.30;;
75814;SDS011;64451;45.574;14.224;2023-02-28T08:51:41;3.38;;;1.42;;
75814;SDS011;64451;45.574;14.224;2023-02-28T08:53:44;1.58;;;0.88;;
75814;SDS011;64451;45.574;14.224;2023-02-28T08:55:55;1.23;;;0.82;;
75814;SDS011;64451;45.574;14.224;2023-02-28T08:58:02;2.28;;;0.65;;
75814;SDS011;64451;45.574;14.224;2023-02-28T09:00:09;1.15;;;0.60;;
75814;SDS011;64451;45.574;14.224;2023-02-28T09:02:13;1.70;;;0.90;;
75814;SDS011;64451;45.574;14.224;2023-02-28T09:04:15;2.10;;;0.73;;
75814;SDS011;64451;45.574;14.224;2023-02-28T09:06:17;0.60;;;0.43;;
75814;SDS011;64451;45.574;14.224;2023-02-28T09:08:34;1.75;;;0.85;;
75814;SDS011;64451;45.574;14.224;2023-02-28T09:10:34;1.45;;;0.68;;
75814;SDS011;64451;45.574;14.224;2023-02-28T09:12:41;5.72;;;2.53;;
75814;SDS011;64451;45.574;14.224;2023-02-28T09:15:11;1.52;;;0.60;;
75814;SDS011;64451;45.574;14.224;2023-02-28T09:17:11;0.40;;;0.35;;
75814;SDS011;64451;45.574;14.224;2023-02-28T09:19:12;0.50;;;0.20;;
75814;SDS011;64451;45.574;14.224;2023-02-28T09:21:17;1.83;;;0.70;;
75814;SDS011;64451;45.574;14.224;2023-02-28T09:23:25;0.88;;;0.52;;
75814;SDS011;64451;45.574;14.224;2023-02-28T09:25:26;1.05;;;0.65;;
75814;SDS011;64451;45.574;14.224;2023-02-28T09:27:26;6.72;;;0.98;;
75814;SDS011;64451;45.574;14.224;2023-02-28T09:29:26;2.03;;;0.90;;
75814;SDS011;64451;45.574;14.224;2023-02-28T09:31:29;3.15;;;0.85;;
75814;SDS011;64451;45.574;14.224;2023-02-28T09:34:17;1.13;;;0.73;;
75814;SDS011;64451;45.574;14.224;2023-02-28T09:38:55;0.82;;;0.65;;
75814;SDS011;64451;45.574;14.224;2023-02-28T09:40:56;0.68;;;0.52;;
75814;SDS011;64451;45.574;14.224;2023-02-28T09:42:59;0.90;;;0.50;;
75814;SDS011;64451;45.574;14.224;2023-02-28T09:45:00;1.88;;;0.63;;
75814;SDS011;64451;45.574;14.224;2023-02-28T09:49:42;1.27;;;0.75;;
75814;SDS011;64451;45.574;14.224;2023-02-28T09:51:59;2.05;;;0.90;;
75814;SDS011;64451;45.574;14.224;2023-02-28T09:54:05;1.15;;;0.50;;
75814;SDS011;64451;45.574;14.224;2023-02-28T09:56:18;1.55;;;0.80;;
75814;SDS011;64451;45.574;14.224;2023-02-28T09:58:28;0.77;;;0.52;;
75814;SDS011;64451;45.574;14.224;2023-02-28T10:00:38;0.20;;;0.20;;
75814;SDS011;64451;45.574;14.224;2023-02-28T10:05:22;0.88;;;0.65;;
75814;SDS011;64451;45.574;14.224;2023-02-28T10:10:02;1.92;;;1.02;;
75814;SDS011;64451;45.574;14.224;2023-02-28T10:12:13;0.45;;;0.32;;
75814;SDS011;64451;45.574;14.224;2023-02-28T10:14:17;0.22;;;0.22;;
75814;SDS011;64451;45.574;14.224;2023-02-28T10:16:22;0.75;;;0.38;;
75814;SDS011;64451;45.574;14.224;2023-02-28T10:18:30;0.30;;;0.30;;
75814;SDS011;64451;45.574;14.224;2023-02-28T10:20:49;0.65;;;0.60;;
75814;SDS011;64451;45.574;14.224;2023-02-28T10:23:05;0.85;;;0.50;;
75814;SDS011;64451;45.574;14.224;2023-02-28T10:27:25;0.47;;;0.38;;
75814;SDS011;64451;45.574;14.224;2023-02-28T10:29:31;8.88;;;0.85;;
75814;SDS011;64451;45.574;14.224;2023-02-28T10:33:34;1.33;;;0.60;;
75814;SDS011;64451;45.574;14.224;2023-02-28T10:35:35;0.28;;;0.28;;
75814;SDS011;64451;45.574;14.224;2023-02-28T10:37:38;0.20;;;0.20;;
75814;SDS011;64451;45.574;14.224;2023-02-28T10:39:40;1.75;;;0.85;;
75814;SDS011;64451;45.574;14.224;2023-02-28T10:41:51;4.03;;;0.50;;
75814;SDS011;64451;45.574;14.224;2023-02-28T10:43:51;0.90;;;0.63;;
75814;SDS011;64451;45.574;14.224;2023-02-28T10:46:09;1.67;;;1.00;;
75814;SDS011;64451;45.574;14.224;2023-02-28T10:50:36;2.42;;;0.70;;
75814;SDS011;64451;45.574;14.224;2023-02-28T10:52:47;1.13;;;0.75;;
75814;SDS011;64451;45.574;14.224;2023-02-28T10:54:48;1.38;;;0.57;;
75814;SDS011;64451;45.574;14.224;2023-02-28T10:57:05;0.52;;;0.38;;
75814;SDS011;64451;45.574;14.224;2023-02-28T11:01:12;2.47;;;0.55;;
75814;SDS011;64451;45.574;14.224;2023-02-28T11:03:34;0.57;;;0.57;;
75814;SDS011;64451;45.574;14.224;2023-02-28T11:05:35;2.10;;;0.47;;
75814;SDS011;64451;45.574;14.224;2023-02-28T11:07:36;0.70;;;0.30;;
75814;SDS011;64451;45.574;14.224;2023-02-28T11:09:39;0.68;;;0.60;;
75814;SDS011;64451;45.574;14.224;2023-02-28T11:11:42;4.55;;;2.03;;
75814;SDS011;64451;45.574;14.224;2023-02-28T11:13:45;1.48;;;0.70;;
75814;SDS011;64451;45.574;14.224;2023-02-28T11:15:51;0.43;;;0.25;;
75814;SDS011;64451;45.574;14.224;2023-02-28T11:17:55;0.57;;;0.47;;
75814;SDS011;64451;45.574;14.224;2023-02-28T11:20:02;1.27;;;0.50;;
75814;SDS011;64451;45.574;14.224;2023-02-28T11:22:07;1.60;;;0.60;;
75814;SDS011;64451;45.574;14.224;2023-02-28T11:24:22;0.50;;;0.32;;
75814;SDS011;64451;45.574;14.224;2023-02-28T11:26:42;0.95;;;0.55;;
75814;SDS011;64451;45.574;14.224;2023-02-28T11:28:50;0.68;;;0.55;;
75814;SDS011;64451;45.574;14.224;2023-02-28T11:35:50;0.90;;;0.45;;
75814;SDS011;64451;45.574;14.224;2023-02-28T11:38:19;0.47;;;0.47;;
75814;SDS011;64451;45.574;14.224;2023-02-28T11:56:08;0.40;;;0.40;;
75814;SDS011;64451;45.574;14.224;2023-02-28T12:05:21;1.08;;;0.73;;
75814;SDS011;64451;45.574;14.224;2023-02-28T12:07:32;0.75;;;0.43;;
75814;SDS011;64451;45.574;14.224;2023-02-28T12:19:05;2.17;;;0.85;;
75814;SDS011;64451;45.574;14.224;2023-02-28T12:23:47;2.70;;;1.30;;
75814;SDS011;64451;45.574;14.224;2023-02-28T12:26:09;0.73;;;0.73;;
75814;SDS011;64451;45.574;14.224;2023-02-28T12:28:20;2.15;;;0.45;;
75814;SDS011;64451;45.574;14.224;2023-02-28T12:30:24;2.38;;;0.95;;
75814;SDS011;64451;45.574;14.224;2023-02-28T12:32:32;0.43;;;0.43;;
75814;SDS011;64451;45.574;14.224;2023-02-28T12:34:38;2.33;;;1.17;;
75814;SDS011;64451;45.574;14.224;2023-02-28T12:36:42;1.10;;;0.73;;
75814;SDS011;64451;45.574;14.224;2023-02-28T12:42:59;1.45;;;0.60;;
75814;SDS011;64451;45.574;14.224;2023-02-28T12:45:10;0.43;;;0.43;;
75814;SDS011;64451;45.574;14.224;2023-02-28T12:47:21;2.45;;;0.85;;
75814;SDS011;64451;45.574;14.224;2023-02-28T12:49:23;1.95;;;0.80;;
75814;SDS011;64451;45.574;14.224;2023-02-28T12:51:31;3.13;;;1.10;;
75814;SDS011;64451;45.574;14.224;2023-02-28T12:53:41;1.88;;;0.95;;
75814;SDS011;64451;45.574;14.224;2023-02-28T13:10:46;4.65;;;1.20;;
75814;SDS011;64451;45.574;14.224;2023-02-28T13:12:54;5.90;;;0.95;;
75814;SDS011;64451;45.574;14.224;2023-02-28T13:15:01;1.85;;;0.93;;
75814;SDS011;64451;45.574;14.224;2023-02-28T13:17:24;1.42;;;1.00;;
75814;SDS011;64451;45.574;14.224;2023-02-28T13:19:26;2.10;;;0.98;;
75814;SDS011;64451;45.574;14.224;2023-02-28T13:21:30;2.97;;;1.10;;
75814;SDS011;64451;45.574;14.224;2023-02-28T13:25:56;1.30;;;0.68;;
75814;SDS011;64451;45.574;14.224;2023-02-28T13:27:57;1.85;;;0.80;;
75814;SDS011;64451;45.574;14.224;2023-02-28T13:30:00;3.15;;;1.23;;
75814;SDS011;64451;45.574;14.224;2023-02-28T13:34:24;1.42;;;0.75;;
75814;SDS011;64451;45.574;14.224;2023-02-28T13:38:44;1.77;;;1.17;;
75814;SDS011;64451;45.574;14.224;2023-02-28T13:43:58;2.25;;;0.70;;
75814;SDS011;64451;45.574;14.224;2023-02-28T13:46:11;1.80;;;1.15;;
75814;SDS011;64451;45.574;14.224;2023-02-28T13:48:19;2.60;;;1.10;;
75814;SDS011;64451;45.574;14.224;2023-02-28T13:52:30;2.40;;;0.85;;
75814;SDS011;64451;45.574;14.224;2023-02-28T14:20:14;2.33;;;1.20;;
75814;SDS011;64451;45.574;14.224;2023-02-28T14:37:38;6.50;;;1.27;;
75814;SDS011;64451;45.574;14.224;2023-02-28T14:40:28;2.50;;;1.20;;
75814;SDS011;64451;45.574;14.224;2023-02-28T15:01:35;2.17;;;1.33;;
75814;SDS011;64451;45.574;14.224;2023-02-28T15:03:47;7.15;;;1.63;;
75814;SDS011;64451;45.574;14.224;2023-02-28T15:10:49;1.77;;;1.35;;
75814;SDS011;64451;45.574;14.224;2023-02-28T15:12:58;1.70;;;0.88;;
75814;SDS011;64451;45.574;14.224;2023-02-28T15:15:14;5.03;;;1.95;;
75814;SDS011;64451;45.574;14.224;2023-02-28T15:17:19;4.68;;;2.03;;
75814;SDS011;64451;45.574;14.224;2023-02-28T15:19:24;8.20;;;1.98;;
75814;SDS011;64451;45.574;14.224;2023-02-28T15:21:32;2.90;;;1.42;;
75814;SDS011;64451;45.574;14.224;2023-02-28T15:23:35;8.68;;;2.08;;
75814;SDS011;64451;45.574;14.224;2023-02-28T15:25:37;4.93;;;1.70;;
75814;SDS011;64451;45.574;14.224;2023-02-28T15:27:42;4.70;;;1.92;;
75814;SDS011;64451;45.574;14.224;2023-02-28T15:30:23;3.72;;;1.23;;
75814;SDS011;64451;45.574;14.224;2023-02-28T15:32:29;2.03;;;0.85;;
75814;SDS011;64451;45.574;14.224;2023-02-28T15:34:40;3.67;;;2.05;;
75814;SDS011;64451;45.574;14.224;2023-02-28T15:36:42;4.68;;;1.60;;
75814;SDS011;64451;45.574;14.224;2023-02-28T15:38:46;1.42;;;1.00;;
75814;SDS011;64451;45.574;14.224;2023-02-28T15:40:52;4.68;;;1.92;;
75814;SDS011;64451;45.574;14.224;2023-02-28T15:43:37;4.05;;;2.28;;
75814;SDS011;64451;45.574;14.224;2023-02-28T15:45:27;4.03;;;2.03;;
75814;SDS011;64451;45.574;14.224;2023-02-28T15:47:44;3.45;;;1.80;;
75814;SDS011;64451;45.574;14.224;2023-02-28T15:49:52;7.93;;;1.92;;
75814;SDS011;64451;45.574;14.224;2023-02-28T15:51:53;2.58;;;1.30;;
75814;SDS011;64451;45.574;14.224;2023-02-28T15:54:07;3.90;;;1.65;;
75814;SDS011;64451;45.574;14.224;2023-02-28T15:56:33;4.35;;;1.70;;
75814;SDS011;64451;45.574;14.224;2023-02-28T15:58:38;2.03;;;1.48;;
75814;SDS011;64451;45.574;14.224;2023-02-28T16:00:44;4.43;;;2.22;;
75814;SDS011;64451;45.574;14.224;2023-02-28T16:02:49;2.58;;;1.45;;
75814;SDS011;64451;45.574;14.224;2023-02-28T16:07:18;5.07;;;2.10;;
75814;SDS011;64451;45.574;14.224;2023-02-28T16:09:18;1.73;;;0.93;;
75814;SDS011;64451;45.574;14.224;2023-02-28T16:11:19;3.05;;;1.23;;
75814;SDS011;64451;45.574;14.224;2023-02-28T16:15:31;6.55;;;1.67;;
75814;SDS011;64451;45.574;14.224;2023-02-28T16:17:41;2.63;;;0.70;;
75814;SDS011;64451;45.574;14.224;2023-02-28T16:19:41;3.33;;;1.60;;
75814;SDS011;64451;45.574;14.224;2023-02-28T16:21:42;1.98;;;1.25;;
75814;SDS011;64451;45.574;14.224;2023-02-28T16:23:42;4.13;;;2.17;;
75814;SDS011;64451;45.574;14.224;2023-02-28T16:25:48;7.88;;;2.22;;
75814;SDS011;64451;45.574;14.224;2023-02-28T16:27:58;3.10;;;1.40;;
75814;SDS011;64451;45.574;14.224;2023-02-28T16:30:05;1.40;;;1.02;;
75814;SDS011;64451;45.574;14.224;2023-02-28T16:32:10;2.50;;;1.63;;
75814;SDS011;64451;45.574;14.224;2023-02-28T16:36:59;3.28;;;1.30;;
75814;SDS011;64451;45.574;14.224;2023-02-28T16:39:03;3.30;;;1.60;;
75814;SDS011;64451;45.574;14.224;2023-02-28T16:41:03;4.28;;;1.50;;
75814;SDS011;64451;45.574;14.224;2023-02-28T16:43:07;6.57;;;2.20;;
75814;SDS011;64451;45.574;14.224;2023-02-28T16:45:26;3.20;;;1.67;;
75814;SDS011;64451;45.574;14.224;2023-02-28T16:47:27;2.03;;;1.38;;
75814;SDS011;64451;45.574;14.224;2023-02-28T16:49:28;1.23;;;0.65;;
75814;SDS011;64451;45.574;14.224;2023-02-28T16:51:41;4.55;;;2.15;;
75814;SDS011;64451;45.574;14.224;2023-02-28T16:53:41;3.08;;;1.58;;
75814;SDS011;64451;45.574;14.224;2023-02-28T16:55:42;3.33;;;1.58;;